Terminal Aerodrome Forecast
Issued by NWS Sterling, VA

Current Version | Previous Version | Text Only | Print | Product List | Glossary Off
Versions: 1 2 3 4 5 6 7 8 9 10 11 12 13 14 15 16 17 18 19 20 21 22 23 24 25 26

000
FTUS41 KLWX 010100 AAA
TAFIAD
TAF AMD
KIAD 010107Z 0101/0206 30009KT P6SM SCT030 BKN100
      TEMPO 0101/0102 3SM -SHRA BKN025
     FM010300 00000KT 5SM -SHRA BR BKN045
     FM010400 00000KT 3SM BR BKN060
     FM011000 00000KT 3SM BR BKN003
     FM011300 VRB03KT 5SM BR BKN015
     FM011500 VRB03KT P6SM BKN020
     FM011700 VRB03KT P6SM BKN045
     FM011800 VRB03KT P6SM SCT050
     FM012100 02004KT P6SM SCT250=

USA.gov is the U.S. government's official web portal to all federal, state and local government web resources and services.